createdAt,value
2022-11-06T06:48:58.274Z,9.70
2022-11-06T06:51:25.695Z,9.70
2022-11-06T06:53:53.060Z,9.80
2022-11-06T06:56:20.507Z,9.70
2022-11-06T06:58:48.307Z,9.70
2022-11-06T07:01:19.128Z,9.80
2022-11-06T07:03:47.369Z,9.70
2022-11-06T07:06:16.112Z,10.00
2022-11-06T07:08:44.794Z,9.80
2022-11-06T07:11:12.567Z,9.80
2022-11-06T07:13:39.998Z,9.80
2022-11-06T07:16:12.181Z,9.80
2022-11-06T07:25:36.407Z,9.90
2022-11-06T07:28:08.749Z,9.90
2022-11-06T07:30:36.745Z,10.20
2022-11-06T07:36:14.637Z,10.20
2022-11-06T07:38:46.109Z,9.90
2022-11-06T07:41:15.475Z,9.90
2022-11-06T07:43:43.881Z,9.90
2022-11-06T07:46:13.295Z,9.90
2022-11-06T07:48:40.960Z,9.90
2022-11-06T07:51:11.056Z,10.00
2022-11-06T07:53:56.359Z,10.00
2022-11-06T08:05:35.607Z,10.20
2022-11-06T08:08:03.062Z,10.50
2022-11-06T08:10:33.858Z,10.50
2022-11-06T08:16:05.387Z,10.50
2022-11-06T08:28:34.426Z,11.60
2022-11-06T08:31:09.154Z,12.00
2022-11-06T08:34:09.141Z,12.10
2022-11-06T08:36:56.620Z,12.40
2022-11-06T08:39:24.603Z,12.60
2022-11-06T09:32:23.961Z,15.20
2022-11-06T09:34:55.589Z,14.90
2022-11-06T09:37:23.133Z,15.30
2022-11-06T09:39:50.663Z,15.50
2022-11-06T09:42:48.130Z,15.60
2022-11-06T09:45:24.499Z,15.30
2022-11-06T10:00:17.597Z,15.60
2022-11-06T10:03:14.473Z,15.60
2022-11-06T10:05:43.127Z,15.60
2022-11-06T10:08:22.108Z,15.60
2022-11-06T10:11:11.465Z,15.60
2022-11-06T10:14:14.535Z,15.60
2022-11-06T10:17:04.008Z,15.50
2022-11-06T10:19:45.680Z,15.60
2022-11-06T10:22:35.423Z,15.50
2022-11-06T10:25:27.448Z,15.50
2022-11-06T10:28:05.858Z,15.60
2022-11-06T10:30:52.655Z,15.30
2022-11-06T10:33:46.532Z,15.50
2022-11-06T10:36:44.986Z,15.40
2022-11-06T10:39:26.768Z,15.40
2022-11-06T10:42:03.126Z,15.30
2022-11-06T10:44:52.377Z,15.30
2022-11-06T10:47:22.938Z,15.20
2022-11-06T10:49:54.253Z,15.10
2022-11-06T10:52:40.128Z,15.30
2022-11-06T10:55:19.862Z,15.10
2022-11-06T10:58:01.662Z,15.00
2022-11-06T11:00:29.532Z,15.00
2022-11-06T11:03:02.224Z,15.20
2022-11-06T11:05:41.211Z,15.00
2022-11-06T11:08:29.154Z,14.90
2022-11-06T11:11:13.740Z,15.10
2022-11-06T11:14:03.142Z,15.00
2022-11-06T11:16:47.702Z,15.00
2022-11-06T11:19:39.154Z,15.00
2022-11-06T11:22:19.021Z,15.00
2022-11-06T11:25:06.543Z,15.00
2022-11-06T11:30:37.325Z,14.90
2022-11-06T11:33:16.225Z,15.00
2022-11-06T11:35:51.844Z,14.60
2022-11-06T11:38:34.810Z,15.10
2022-11-06T11:41:09.254Z,14.90
2022-11-06T11:43:36.796Z,14.90
2022-11-06T11:46:17.142Z,15.10
2022-11-06T11:51:56.081Z,14.80
2022-11-06T11:54:26.854Z,14.70
2022-11-06T11:57:04.636Z,14.70
2022-11-06T11:59:50.059Z,14.70
2022-11-06T12:02:41.130Z,14.60
2022-11-06T12:05:41.276Z,14.90
2022-11-06T12:08:22.050Z,14.70
2022-11-06T12:10:50.383Z,14.70
2022-11-06T12:13:23.721Z,14.70
2022-11-06T12:15:55.432Z,15.00
2022-11-06T12:18:33.271Z,14.70
2022-11-06T12:21:11.043Z,14.80
2022-11-06T12:23:47.485Z,14.80
2022-11-06T12:32:25.301Z,14.80
2022-11-06T12:38:13.649Z,14.80
2022-11-06T12:40:50.786Z,14.90
2022-11-06T12:43:46.115Z,15.00
2022-11-06T12:46:32.987Z,15.00
2022-11-06T12:49:22.773Z,15.00
2022-11-06T12:52:21.273Z,15.10
2022-11-06T12:55:12.056Z,15.20
2022-11-06T12:58:17.243Z,15.20
2022-11-06T13:01:14.655Z,15.30
2022-11-06T13:07:39.913Z,15.30
2022-11-06T13:10:22.530Z,15.40
2022-11-06T13:20:08.441Z,15.50
2022-11-06T13:23:28.166Z,15.50
2022-11-06T13:26:18.943Z,15.40
2022-11-06T13:29:19.473Z,15.80
2022-11-06T13:32:05.130Z,15.60
2022-11-06T13:34:37.158Z,15.60
2022-11-06T13:37:19.214Z,15.80
2022-11-06T13:40:04.409Z,15.60
2022-11-06T13:42:42.947Z,15.60
2022-11-06T13:45:15.939Z,15.70
2022-11-06T13:47:55.391Z,15.90
2022-11-06T13:50:37.759Z,15.80
2022-11-06T13:53:21.125Z,15.80
2022-11-06T13:55:54.080Z,15.80
2022-11-06T13:58:59.842Z,15.90
2022-11-06T14:01:52.403Z,15.90
2022-11-06T14:05:25.784Z,15.90
2022-11-06T14:07:55.099Z,15.90
2022-11-06T14:10:25.441Z,15.90
2022-11-06T14:12:53.674Z,15.90
2022-11-06T14:22:15.142Z,15.90
2022-11-06T14:24:45.340Z,15.90
2022-11-06T14:27:36.141Z,15.60
2022-11-06T14:30:57.637Z,15.90
2022-11-06T14:33:40.926Z,15.90
2022-11-06T14:36:34.355Z,15.90
2022-11-06T14:39:03.764Z,15.90
2022-11-06T14:41:34.593Z,16.00
2022-11-06T14:44:06.458Z,16.20
2022-11-06T14:46:36.886Z,15.80
2022-11-06T15:15:44.254Z,15.60
2022-11-06T15:18:22.738Z,15.60
2022-11-06T15:20:58.455Z,15.60
2022-11-06T15:23:35.516Z,15.50
2022-11-06T15:26:37.848Z,15.70
2022-11-06T15:29:18.026Z,15.50
2022-11-06T15:31:48.380Z,15.70
2022-11-06T15:34:29.929Z,15.70
2022-11-06T15:37:19.366Z,15.70
2022-11-06T15:39:57.493Z,15.50
2022-11-06T15:45:42.805Z,15.50
2022-11-06T15:48:36.925Z,15.60
2022-11-06T15:51:28.582Z,15.40
2022-11-06T16:03:48.818Z,15.40
2022-11-06T16:06:16.723Z,15.30
2022-11-06T16:08:47.528Z,15.50
2022-11-06T16:11:18.823Z,15.20
2022-11-06T16:13:47.816Z,15.50
2022-11-06T16:16:34.640Z,15.20
2022-11-06T16:19:05.310Z,15.20
2022-11-06T16:21:35.813Z,15.20
2022-11-06T16:24:15.811Z,15.30
2022-11-06T16:26:49.179Z,15.10
2022-11-06T16:29:26.630Z,15.10
2022-11-06T16:32:01.566Z,15.10
2022-11-06T16:34:33.020Z,14.70
2022-11-06T16:43:33.545Z,14.90
2022-11-06T16:46:07.987Z,15.00
2022-11-06T16:48:41.101Z,15.10
2022-11-06T16:51:11.783Z,15.10
2022-11-06T16:53:58.616Z,15.10
2022-11-06T16:56:29.325Z,14.80
2022-11-06T16:59:20.419Z,15.10
2022-11-06T17:01:48.412Z,15.00
2022-11-06T17:04:29.696Z,15.00
2022-11-06T17:06:58.837Z,14.80
2022-11-06T17:09:30.607Z,14.80
2022-11-06T17:12:00.273Z,14.80
2022-11-06T17:14:28.184Z,14.80
2022-11-06T17:16:59.136Z,15.00
2022-11-06T17:19:27.997Z,14.70
2022-11-06T17:21:56.503Z,14.70
2022-11-06T17:24:39.306Z,14.90
2022-11-06T17:27:07.267Z,14.70
2022-11-06T17:29:36.419Z,14.70
2022-11-06T17:32:04.676Z,14.70
2022-11-06T17:34:32.129Z,14.60
2022-11-06T17:36:59.681Z,14.60
2022-11-06T17:45:44.856Z,14.60
2022-11-06T17:48:22.725Z,14.60
2022-11-06T17:51:10.425Z,14.60
2022-11-06T17:53:41.330Z,15.00
2022-11-06T17:56:16.493Z,14.60
2022-11-06T17:58:46.946Z,14.80
2022-11-06T18:01:19.044Z,14.80
2022-11-06T18:06:57.390Z,14.50
2022-11-06T18:09:24.916Z,14.50
2022-11-06T18:11:54.022Z,14.70
2022-11-06T18:14:22.720Z,14.70
2022-11-06T18:33:40.585Z,14.40
2022-11-06T18:36:09.998Z,14.30
2022-11-06T18:38:38.216Z,14.30
2022-11-06T18:41:13.831Z,14.30
2022-11-06T18:43:41.671Z,14.30
2022-11-06T18:46:15.617Z,14.30
2022-11-06T18:48:44.067Z,14.30
2022-11-06T18:51:27.464Z,14.40
2022-11-06T18:54:04.653Z,14.50
2022-11-06T18:59:35.292Z,14.30
2022-11-06T19:02:14.992Z,14.50
2022-11-06T19:05:10.634Z,14.20
2022-11-06T19:07:38.508Z,14.20
2022-11-06T19:10:06.737Z,14.10
2022-11-06T19:12:39.553Z,14.20
2022-11-06T19:15:10.546Z,14.40
2022-11-06T19:17:47.159Z,14.10
2022-11-06T19:20:15.249Z,14.10
2022-11-06T19:26:10.682Z,14.10
2022-11-06T19:31:55.281Z,14.00
2022-11-06T19:34:28.903Z,14.20
2022-11-06T19:36:57.089Z,14.20
2022-11-06T19:39:40.296Z,13.70
2022-11-06T19:42:08.737Z,14.20
2022-11-06T19:44:38.183Z,14.00
2022-11-06T19:47:06.979Z,13.90
2022-11-06T19:53:00.189Z,14.00
2022-11-06T19:55:28.070Z,14.00
2022-11-06T19:58:00.741Z,14.20
2022-11-06T20:00:28.982Z,14.10
2022-11-06T20:02:57.128Z,14.10
2022-11-06T20:05:25.467Z,13.90
2022-11-06T20:08:28.226Z,14.10
2022-11-06T20:11:16.034Z,13.80
2022-11-06T20:13:49.693Z,14.00
2022-11-06T20:16:19.500Z,14.00
2022-11-06T20:18:52.371Z,13.90
2022-11-06T20:21:19.924Z,13.70
2022-11-06T20:23:48.091Z,13.70
2022-11-06T20:26:19.744Z,13.90
2022-11-06T20:28:54.259Z,13.90
2022-11-06T20:31:26.937Z,13.50
2022-11-06T20:34:04.959Z,13.80
2022-11-06T20:36:37.071Z,13.80
2022-11-06T20:39:13.626Z,13.80
2022-11-06T20:44:36.022Z,13.50
2022-11-06T20:47:27.544Z,13.70
2022-11-06T20:49:55.993Z,13.50
2022-11-06T20:52:23.944Z,13.70
2022-11-06T20:54:52.588Z,13.70
2022-11-06T20:57:23.822Z,13.70
2022-11-06T20:59:57.525Z,13.70
2022-11-06T21:02:37.124Z,13.70
2022-11-06T21:05:08.674Z,13.80
2022-11-06T21:07:36.188Z,13.50
2022-11-06T21:10:11.269Z,13.60
2022-11-06T21:12:38.934Z,13.60
2022-11-06T21:15:28.325Z,13.20
2022-11-06T21:17:56.085Z,13.70
2022-11-06T21:20:26.608Z,13.80
2022-11-06T21:22:54.326Z,13.80
2022-11-06T21:25:22.630Z,13.80
2022-11-06T21:27:50.560Z,13.80
2022-11-06T21:30:18.188Z,13.60
2022-11-06T21:32:45.727Z,13.80
2022-11-06T21:35:13.473Z,13.60
2022-11-06T21:37:41.138Z,13.60
2022-11-06T21:40:09.815Z,13.80
2022-11-06T21:42:37.571Z,13.60
2022-11-06T21:45:06.841Z,13.30
2022-11-06T21:47:35.726Z,13.60
2022-11-06T21:50:03.766Z,13.60
2022-11-06T21:52:50.555Z,13.60
2022-11-06T21:55:36.902Z,13.70
2022-11-06T21:58:04.569Z,13.70
2022-11-06T22:00:32.368Z,13.90
2022-11-06T22:03:00.007Z,13.90
2022-11-06T22:05:27.716Z,13.70
2022-11-06T22:07:55.243Z,13.90
2022-11-06T22:10:22.691Z,13.80
2022-11-06T22:12:50.163Z,13.90
2022-11-06T22:15:17.827Z,13.90
2022-11-06T22:17:45.300Z,13.90
2022-11-06T22:20:12.742Z,13.60
2022-11-06T22:22:40.147Z,13.60
2022-11-06T22:25:07.839Z,13.90
2022-11-06T22:27:39.726Z,13.60
2022-11-06T22:30:09.164Z,13.90
2022-11-06T22:32:36.680Z,13.70
2022-11-06T22:35:04.705Z,13.90
2022-11-06T22:37:32.205Z,13.70
2022-11-06T22:39:59.581Z,13.90
2022-11-06T22:42:29.877Z,13.70
2022-11-06T22:44:57.308Z,13.70
2022-11-06T22:47:25.266Z,13.70
2022-11-06T22:49:52.669Z,13.70
2022-11-06T22:52:20.173Z,13.70
2022-11-06T22:54:47.608Z,13.70
2022-11-06T22:57:15.122Z,13.70
2022-11-06T22:59:42.950Z,13.70
2022-11-06T23:02:10.444Z,13.60
2022-11-06T23:04:37.930Z,13.90
2022-11-06T23:07:05.512Z,13.70
2022-11-06T23:09:32.918Z,13.90
2022-11-06T23:12:00.292Z,14.10
2022-11-06T23:14:29.458Z,13.70
2022-11-06T23:17:04.319Z,13.70
2022-11-06T23:19:32.520Z,13.70
2022-11-06T23:22:18.926Z,14.00
2022-11-06T23:24:46.817Z,13.80
2022-11-06T23:27:14.500Z,13.80
2022-11-06T23:29:42.023Z,13.70
2022-11-06T23:32:09.527Z,14.00
2022-11-06T23:34:36.939Z,13.70
2022-11-06T23:37:04.461Z,13.70
2022-11-06T23:39:32.241Z,13.80
2022-11-06T23:41:59.709Z,14.00
2022-11-06T23:44:45.825Z,13.80
2022-11-06T23:47:13.383Z,13.80
2022-11-06T23:49:40.830Z,13.90
2022-11-06T23:52:08.343Z,13.80
2022-11-06T23:54:36.266Z,13.90
2022-11-06T23:57:04.552Z,13.90
2022-11-06T23:59:31.956Z,13.90
